sensor_id;sensor_type;location;lat;lon;timestamp;P1;durP1;ratioP1;P2;durP2;ratioP2
56073;SDS011;41950;55.840;37.442;2023-08-21T00:00:08;6.40;;;5.68;;
56073;SDS011;41950;55.840;37.442;2023-08-21T00:02:38;6.72;;;5.28;;
56073;SDS011;41950;55.840;37.442;2023-08-21T00:05:04;6.40;;;5.05;;
56073;SDS011;41950;55.840;37.442;2023-08-21T00:07:31;7.07;;;5.75;;
56073;SDS011;41950;55.840;37.442;2023-08-21T00:09:58;6.43;;;5.25;;
56073;SDS011;41950;55.840;37.442;2023-08-21T00:12:24;5.72;;;4.90;;
56073;SDS011;41950;55.840;37.442;2023-08-21T00:14:49;6.70;;;4.95;;
56073;SDS011;41950;55.840;37.442;2023-08-21T00:17:15;5.45;;;4.95;;
56073;SDS011;41950;55.840;37.442;2023-08-21T00:19:40;5.22;;;4.60;;
56073;SDS011;41950;55.840;37.442;2023-08-21T00:22:06;5.88;;;4.50;;
56073;SDS011;41950;55.840;37.442;2023-08-21T00:24:35;5.95;;;4.22;;
56073;SDS011;41950;55.840;37.442;2023-08-21T00:27:00;4.85;;;4.20;;
56073;SDS011;41950;55.840;37.442;2023-08-21T00:29:26;4.72;;;4.18;;
56073;SDS011;41950;55.840;37.442;2023-08-21T00:31:52;5.22;;;4.30;;
56073;SDS011;41950;55.840;37.442;2023-08-21T00:34:20;5.00;;;4.10;;
56073;SDS011;41950;55.840;37.442;2023-08-21T00:36:45;5.82;;;4.05;;
56073;SDS011;41950;55.840;37.442;2023-08-21T00:39:11;5.22;;;4.25;;
56073;SDS011;41950;55.840;37.442;2023-08-21T00:41:39;5.88;;;4.68;;
56073;SDS011;41950;55.840;37.442;2023-08-21T00:44:05;5.85;;;4.40;;
56073;SDS011;41950;55.840;37.442;2023-08-21T00:46:31;5.40;;;4.65;;
56073;SDS011;41950;55.840;37.442;2023-08-21T00:48:57;5.68;;;4.57;;
56073;SDS011;41950;55.840;37.442;2023-08-21T00:51:23;5.30;;;4.50;;
56073;SDS011;41950;55.840;37.442;2023-08-21T00:53:49;5.82;;;5.22;;
56073;SDS011;41950;55.840;37.442;2023-08-21T00:56:16;6.80;;;5.35;;
56073;SDS011;41950;55.840;37.442;2023-08-21T00:58:41;6.18;;;5.00;;
56073;SDS011;41950;55.840;37.442;2023-08-21T01:01:10;6.40;;;5.15;;
56073;SDS011;41950;55.840;37.442;2023-08-21T01:03:38;6.55;;;5.72;;
56073;SDS011;41950;55.840;37.442;2023-08-21T01:06:05;6.38;;;5.35;;
56073;SDS011;41950;55.840;37.442;2023-08-21T01:08:35;6.13;;;5.22;;
56073;SDS011;41950;55.840;37.442;2023-08-21T01:14:15;6.53;;;5.00;;
56073;SDS011;41950;55.840;37.442;2023-08-21T01:17:05;5.72;;;4.63;;
56073;SDS011;41950;55.840;37.442;2023-08-21T01:19:36;5.88;;;4.72;;
56073;SDS011;41950;55.840;37.442;2023-08-21T01:22:05;7.35;;;5.07;;
56073;SDS011;41950;55.840;37.442;2023-08-21T01:24:31;5.50;;;4.65;;
56073;SDS011;41950;55.840;37.442;2023-08-21T01:26:57;5.90;;;5.30;;
56073;SDS011;41950;55.840;37.442;2023-08-21T01:29:23;6.65;;;5.00;;
56073;SDS011;41950;55.840;37.442;2023-08-21T01:31:52;5.97;;;4.85;;
56073;SDS011;41950;55.840;37.442;2023-08-21T01:34:40;5.53;;;4.90;;
56073;SDS011;41950;55.840;37.442;2023-08-21T01:37:08;6.25;;;4.72;;
56073;SDS011;41950;55.840;37.442;2023-08-21T01:39:36;5.47;;;4.82;;
56073;SDS011;41950;55.840;37.442;2023-08-21T01:42:01;5.20;;;4.68;;
56073;SDS011;41950;55.840;37.442;2023-08-21T01:44:27;6.15;;;4.75;;
56073;SDS011;41950;55.840;37.442;2023-08-21T01:46:53;4.80;;;4.30;;
56073;SDS011;41950;55.840;37.442;2023-08-21T01:49:19;6.68;;;4.50;;
56073;SDS011;41950;55.840;37.442;2023-08-21T01:51:45;6.22;;;4.35;;
56073;SDS011;41950;55.840;37.442;2023-08-21T01:54:11;6.15;;;4.60;;
56073;SDS011;41950;55.840;37.442;2023-08-21T01:56:37;5.28;;;4.22;;
56073;SDS011;41950;55.840;37.442;2023-08-21T01:59:04;5.22;;;3.97;;
56073;SDS011;41950;55.840;37.442;2023-08-21T02:01:30;8.73;;;5.20;;
56073;SDS011;41950;55.840;37.442;2023-08-21T02:03:56;6.97;;;4.60;;
56073;SDS011;41950;55.840;37.442;2023-08-21T02:06:22;5.88;;;4.53;;
56073;SDS011;41950;55.840;37.442;2023-08-21T02:08:49;7.28;;;5.10;;
56073;SDS011;41950;55.840;37.442;2023-08-21T02:11:15;5.20;;;4.35;;
56073;SDS011;41950;55.840;37.442;2023-08-21T02:13:41;6.65;;;4.10;;
56073;SDS011;41950;55.840;37.442;2023-08-21T02:16:07;5.78;;;4.20;;
56073;SDS011;41950;55.840;37.442;2023-08-21T02:18:33;5.57;;;4.40;;
56073;SDS011;41950;55.840;37.442;2023-08-21T02:21:01;5.20;;;4.35;;
56073;SDS011;41950;55.840;37.442;2023-08-21T02:23:27;5.53;;;4.18;;
56073;SDS011;41950;55.840;37.442;2023-08-21T02:25:54;5.82;;;3.88;;
56073;SDS011;41950;55.840;37.442;2023-08-21T02:28:20;6.43;;;4.78;;
56073;SDS011;41950;55.840;37.442;2023-08-21T02:30:46;4.93;;;3.80;;
56073;SDS011;41950;55.840;37.442;2023-08-21T02:33:13;5.43;;;4.45;;
56073;SDS011;41950;55.840;37.442;2023-08-21T02:35:38;7.10;;;4.72;;
56073;SDS011;41950;55.840;37.442;2023-08-21T02:38:04;5.15;;;3.92;;
56073;SDS011;41950;55.840;37.442;2023-08-21T02:40:30;6.53;;;4.05;;
56073;SDS011;41950;55.840;37.442;2023-08-21T02:42:56;5.45;;;3.92;;
56073;SDS011;41950;55.840;37.442;2023-08-21T02:45:24;7.55;;;4.35;;
56073;SDS011;41950;55.840;37.442;2023-08-21T02:47:50;7.05;;;4.07;;
56073;SDS011;41950;55.840;37.442;2023-08-21T02:50:17;5.50;;;4.15;;
56073;SDS011;41950;55.840;37.442;2023-08-21T02:52:42;5.68;;;3.83;;
56073;SDS011;41950;55.840;37.442;2023-08-21T02:55:09;6.57;;;4.30;;
56073;SDS011;41950;55.840;37.442;2023-08-21T02:57:35;6.60;;;4.20;;
56073;SDS011;41950;55.840;37.442;2023-08-21T03:00:02;6.78;;;3.42;;
56073;SDS011;41950;55.840;37.442;2023-08-21T03:02:31;5.90;;;3.97;;
56073;SDS011;41950;55.840;37.442;2023-08-21T03:04:57;5.22;;;3.83;;
56073;SDS011;41950;55.840;37.442;2023-08-21T03:07:23;5.55;;;4.10;;
56073;SDS011;41950;55.840;37.442;2023-08-21T03:09:49;5.22;;;3.50;;
56073;SDS011;41950;55.840;37.442;2023-08-21T03:12:16;5.50;;;3.15;;
56073;SDS011;41950;55.840;37.442;2023-08-21T03:14:42;3.88;;;2.92;;
56073;SDS011;41950;55.840;37.442;2023-08-21T03:17:08;3.95;;;2.70;;
56073;SDS011;41950;55.840;37.442;2023-08-21T03:19:35;4.70;;;3.00;;
56073;SDS011;41950;55.840;37.442;2023-08-21T03:22:01;5.88;;;3.22;;
56073;SDS011;41950;55.840;37.442;2023-08-21T03:24:27;4.75;;;2.88;;
56073;SDS011;41950;55.840;37.442;2023-08-21T03:26:55;4.68;;;3.05;;
56073;SDS011;41950;55.840;37.442;2023-08-21T03:29:20;4.22;;;3.03;;
56073;SDS011;41950;55.840;37.442;2023-08-21T03:31:48;4.75;;;2.90;;
56073;SDS011;41950;55.840;37.442;2023-08-21T03:34:17;4.68;;;3.03;;
56073;SDS011;41950;55.840;37.442;2023-08-21T03:36:43;6.82;;;3.08;;
56073;SDS011;41950;55.840;37.442;2023-08-21T03:39:09;5.63;;;3.47;;
56073;SDS011;41950;55.840;37.442;2023-08-21T03:41:35;5.13;;;2.95;;
56073;SDS011;41950;55.840;37.442;2023-08-21T03:44:01;4.47;;;2.95;;
56073;SDS011;41950;55.840;37.442;2023-08-21T03:46:27;4.72;;;2.92;;
56073;SDS011;41950;55.840;37.442;2023-08-21T03:48:52;6.13;;;4.88;;
56073;SDS011;41950;55.840;37.442;2023-08-21T03:51:18;5.38;;;3.00;;
56073;SDS011;41950;55.840;37.442;2023-08-21T03:53:43;5.75;;;3.00;;
56073;SDS011;41950;55.840;37.442;2023-08-21T03:56:09;4.88;;;3.03;;
56073;SDS011;41950;55.840;37.442;2023-08-21T03:58:35;4.95;;;2.70;;
56073;SDS011;41950;55.840;37.442;2023-08-21T04:01:00;4.30;;;2.80;;
56073;SDS011;41950;55.840;37.442;2023-08-21T04:03:26;6.20;;;3.45;;
56073;SDS011;41950;55.840;37.442;2023-08-21T04:05:55;5.18;;;3.00;;
56073;SDS011;41950;55.840;37.442;2023-08-21T04:08:24;4.72;;;2.50;;
56073;SDS011;41950;55.840;37.442;2023-08-21T04:10:50;4.65;;;2.63;;
56073;SDS011;41950;55.840;37.442;2023-08-21T04:13:18;6.43;;;2.70;;
56073;SDS011;41950;55.840;37.442;2023-08-21T04:15:48;6.03;;;3.33;;
56073;SDS011;41950;55.840;37.442;2023-08-21T04:18:14;7.00;;;3.30;;
56073;SDS011;41950;55.840;37.442;2023-08-21T04:20:39;5.78;;;3.00;;
56073;SDS011;41950;55.840;37.442;2023-08-21T04:23:05;6.38;;;3.08;;
56073;SDS011;41950;55.840;37.442;2023-08-21T04:25:31;7.55;;;3.42;;
56073;SDS011;41950;55.840;37.442;2023-08-21T04:27:56;4.30;;;2.70;;
56073;SDS011;41950;55.840;37.442;2023-08-21T04:30:22;4.22;;;2.47;;
56073;SDS011;41950;55.840;37.442;2023-08-21T04:32:47;3.85;;;2.15;;
56073;SDS011;41950;55.840;37.442;2023-08-21T04:35:13;4.13;;;2.28;;
56073;SDS011;41950;55.840;37.442;2023-08-21T04:37:46;4.65;;;1.95;;
56073;SDS011;41950;55.840;37.442;2023-08-21T04:40:12;4.35;;;1.95;;
56073;SDS011;41950;55.840;37.442;2023-08-21T04:42:38;4.60;;;2.28;;
56073;SDS011;41950;55.840;37.442;2023-08-21T04:45:04;4.88;;;2.30;;
56073;SDS011;41950;55.840;37.442;2023-08-21T04:47:31;4.70;;;2.45;;
56073;SDS011;41950;55.840;37.442;2023-08-21T04:49:57;3.72;;;2.13;;
56073;SDS011;41950;55.840;37.442;2023-08-21T04:52:23;3.55;;;1.90;;
56073;SDS011;41950;55.840;37.442;2023-08-21T04:54:50;3.42;;;1.90;;
56073;SDS011;41950;55.840;37.442;2023-08-21T04:57:16;3.28;;;1.80;;
56073;SDS011;41950;55.840;37.442;2023-08-21T04:59:43;3.53;;;1.73;;
56073;SDS011;41950;55.840;37.442;2023-08-21T05:02:09;5.15;;;2.05;;
56073;SDS011;41950;55.840;37.442;2023-08-21T05:04:35;3.88;;;2.03;;
56073;SDS011;41950;55.840;37.442;2023-08-21T05:07:02;3.45;;;1.75;;
56073;SDS011;41950;55.840;37.442;2023-08-21T05:09:28;4.57;;;2.28;;
56073;SDS011;41950;55.840;37.442;2023-08-21T05:11:54;3.95;;;2.03;;
56073;SDS011;41950;55.840;37.442;2023-08-21T05:14:21;4.15;;;1.83;;
56073;SDS011;41950;55.840;37.442;2023-08-21T05:16:48;3.85;;;1.70;;
56073;SDS011;41950;55.840;37.442;2023-08-21T05:19:14;5.32;;;1.70;;
56073;SDS011;41950;55.840;37.442;2023-08-21T05:21:39;3.45;;;1.80;;
56073;SDS011;41950;55.840;37.442;2023-08-21T05:24:05;4.15;;;1.70;;
56073;SDS011;41950;55.840;37.442;2023-08-21T05:26:31;3.92;;;1.67;;
56073;SDS011;41950;55.840;37.442;2023-08-21T05:28:56;5.38;;;2.00;;
56073;SDS011;41950;55.840;37.442;2023-08-21T05:31:22;3.58;;;1.90;;
56073;SDS011;41950;55.840;37.442;2023-08-21T05:33:48;3.95;;;2.08;;
56073;SDS011;41950;55.840;37.442;2023-08-21T05:36:13;3.20;;;1.70;;
56073;SDS011;41950;55.840;37.442;2023-08-21T05:38:39;2.95;;;1.75;;
56073;SDS011;41950;55.840;37.442;2023-08-21T05:41:05;3.95;;;1.77;;
56073;SDS011;41950;55.840;37.442;2023-08-21T05:43:31;3.00;;;1.60;;
56073;SDS011;41950;55.840;37.442;2023-08-21T05:45:57;3.75;;;1.63;;
56073;SDS011;41950;55.840;37.442;2023-08-21T05:48:22;3.88;;;1.58;;
56073;SDS011;41950;55.840;37.442;2023-08-21T05:50:52;3.13;;;1.70;;
56073;SDS011;41950;55.840;37.442;2023-08-21T05:53:18;3.00;;;1.52;;
56073;SDS011;41950;55.840;37.442;2023-08-21T05:55:44;3.70;;;1.70;;
56073;SDS011;41950;55.840;37.442;2023-08-21T05:58:10;3.20;;;1.52;;
56073;SDS011;41950;55.840;37.442;2023-08-21T06:00:37;4.05;;;1.67;;
56073;SDS011;41950;55.840;37.442;2023-08-21T06:03:04;4.07;;;1.58;;
56073;SDS011;41950;55.840;37.442;2023-08-21T06:05:30;3.35;;;1.52;;
56073;SDS011;41950;55.840;37.442;2023-08-21T06:07:56;3.20;;;1.40;;
56073;SDS011;41950;55.840;37.442;2023-08-21T06:10:21;2.92;;;1.50;;
56073;SDS011;41950;55.840;37.442;2023-08-21T06:12:47;2.70;;;1.45;;
56073;SDS011;41950;55.840;37.442;2023-08-21T06:15:13;4.10;;;1.80;;
56073;SDS011;41950;55.840;37.442;2023-08-21T06:17:39;3.63;;;1.70;;
56073;SDS011;41950;55.840;37.442;2023-08-21T06:20:07;2.53;;;1.25;;
56073;SDS011;41950;55.840;37.442;2023-08-21T06:22:36;4.18;;;1.60;;
56073;SDS011;41950;55.840;37.442;2023-08-21T06:25:03;3.08;;;1.50;;
56073;SDS011;41950;55.840;37.442;2023-08-21T06:27:29;4.70;;;1.70;;
56073;SDS011;41950;55.840;37.442;2023-08-21T06:29:55;3.78;;;1.77;;
56073;SDS011;41950;55.840;37.442;2023-08-21T06:32:20;5.35;;;1.90;;
56073;SDS011;41950;55.840;37.442;2023-08-21T06:34:46;3.25;;;1.40;;
56073;SDS011;41950;55.840;37.442;2023-08-21T06:37:12;3.17;;;1.40;;
56073;SDS011;41950;55.840;37.442;2023-08-21T06:39:38;2.58;;;1.50;;
56073;SDS011;41950;55.840;37.442;2023-08-21T06:42:04;3.10;;;1.58;;
56073;SDS011;41950;55.840;37.442;2023-08-21T06:44:30;4.03;;;1.50;;
56073;SDS011;41950;55.840;37.442;2023-08-21T06:46:55;3.17;;;1.35;;
56073;SDS011;41950;55.840;37.442;2023-08-21T06:49:21;3.03;;;1.38;;
56073;SDS011;41950;55.840;37.442;2023-08-21T06:51:47;3.53;;;1.50;;
56073;SDS011;41950;55.840;37.442;2023-08-21T06:54:12;2.90;;;1.50;;
56073;SDS011;41950;55.840;37.442;2023-08-21T06:56:38;3.20;;;1.40;;
56073;SDS011;41950;55.840;37.442;2023-08-21T06:59:04;2.38;;;1.20;;
56073;SDS011;41950;55.840;37.442;2023-08-21T07:01:29;2.70;;;1.30;;
56073;SDS011;41950;55.840;37.442;2023-08-21T07:03:55;2.97;;;1.33;;
56073;SDS011;41950;55.840;37.442;2023-08-21T07:06:21;3.25;;;1.35;;
56073;SDS011;41950;55.840;37.442;2023-08-21T07:08:46;2.67;;;1.27;;
56073;SDS011;41950;55.840;37.442;2023-08-21T07:11:12;3.22;;;1.40;;
56073;SDS011;41950;55.840;37.442;2023-08-21T07:13:38;4.88;;;2.08;;
56073;SDS011;41950;55.840;37.442;2023-08-21T07:16:04;3.33;;;1.42;;
56073;SDS011;41950;55.840;37.442;2023-08-21T07:18:34;4.28;;;1.42;;
56073;SDS011;41950;55.840;37.442;2023-08-21T07:21:01;3.30;;;1.48;;
56073;SDS011;41950;55.840;37.442;2023-08-21T07:23:29;4.25;;;1.67;;
56073;SDS011;41950;55.840;37.442;2023-08-21T07:25:59;3.20;;;1.50;;
56073;SDS011;41950;55.840;37.442;2023-08-21T07:28:25;3.30;;;1.60;;
56073;SDS011;41950;55.840;37.442;2023-08-21T07:30:57;3.20;;;1.30;;
56073;SDS011;41950;55.840;37.442;2023-08-21T07:33:24;3.10;;;1.38;;
56073;SDS011;41950;55.840;37.442;2023-08-21T07:35:57;4.25;;;1.60;;
56073;SDS011;41950;55.840;37.442;2023-08-21T07:38:23;4.05;;;1.60;;
56073;SDS011;41950;55.840;37.442;2023-08-21T07:40:49;2.50;;;1.30;;
56073;SDS011;41950;55.840;37.442;2023-08-21T07:43:15;3.97;;;1.25;;
56073;SDS011;41950;55.840;37.442;2023-08-21T07:45:40;2.92;;;1.40;;
56073;SDS011;41950;55.840;37.442;2023-08-21T07:48:06;3.10;;;1.40;;
56073;SDS011;41950;55.840;37.442;2023-08-21T07:50:31;2.42;;;1.10;;
56073;SDS011;41950;55.840;37.442;2023-08-21T07:52:57;2.60;;;1.27;;
56073;SDS011;41950;55.840;37.442;2023-08-21T07:55:23;2.30;;;1.08;;
56073;SDS011;41950;55.840;37.442;2023-08-21T07:57:49;3.67;;;1.30;;
56073;SDS011;41950;55.840;37.442;2023-08-21T08:00:15;2.38;;;1.33;;
56073;SDS011;41950;55.840;37.442;2023-08-21T08:02:40;3.70;;;1.60;;
56073;SDS011;41950;55.840;37.442;2023-08-21T08:05:08;2.40;;;1.40;;
56073;SDS011;41950;55.840;37.442;2023-08-21T08:07:34;3.42;;;1.55;;
56073;SDS011;41950;55.840;37.442;2023-08-21T08:10:00;3.70;;;1.20;;
56073;SDS011;41950;55.840;37.442;2023-08-21T08:12:25;3.33;;;1.48;;
56073;SDS011;41950;55.840;37.442;2023-08-21T08:14:51;3.45;;;1.45;;
56073;SDS011;41950;55.840;37.442;2023-08-21T08:17:17;4.28;;;1.40;;
56073;SDS011;41950;55.840;37.442;2023-08-21T08:19:42;2.75;;;1.17;;
56073;SDS011;41950;55.840;37.442;2023-08-21T08:22:08;4.80;;;1.70;;
56073;SDS011;41950;55.840;37.442;2023-08-21T08:24:34;3.75;;;1.30;;
56073;SDS011;41950;55.840;37.442;2023-08-21T08:26:59;4.00;;;1.48;;
56073;SDS011;41950;55.840;37.442;2023-08-21T08:29:25;3.03;;;1.15;;
56073;SDS011;41950;55.840;37.442;2023-08-21T08:31:51;2.47;;;1.48;;
56073;SDS011;41950;55.840;37.442;2023-08-21T08:34:16;3.50;;;1.23;;
56073;SDS011;41950;55.840;37.442;2023-08-21T08:36:45;3.17;;;1.40;;
56073;SDS011;41950;55.840;37.442;2023-08-21T08:39:11;3.35;;;1.35;;
56073;SDS011;41950;55.840;37.442;2023-08-21T08:41:54;3.90;;;1.20;;
56073;SDS011;41950;55.840;37.442;2023-08-21T08:44:25;3.67;;;1.48;;
56073;SDS011;41950;55.840;37.442;2023-08-21T08:46:52;3.22;;;1.35;;
56073;SDS011;41950;55.840;37.442;2023-08-21T08:49:17;3.50;;;1.40;;
56073;SDS011;41950;55.840;37.442;2023-08-21T08:51:44;4.43;;;1.50;;
56073;SDS011;41950;55.840;37.442;2023-08-21T08:54:11;3.20;;;1.60;;
56073;SDS011;41950;55.840;37.442;2023-08-21T08:56:37;6.65;;;1.70;;
56073;SDS011;41950;55.840;37.442;2023-08-21T08:59:05;3.03;;;1.35;;
56073;SDS011;41950;55.840;37.442;2023-08-21T09:01:33;3.45;;;1.58;;
56073;SDS011;41950;55.840;37.442;2023-08-21T09:03:58;3.30;;;1.30;;
56073;SDS011;41950;55.840;37.442;2023-08-21T09:06:24;3.65;;;1.30;;
56073;SDS011;41950;55.840;37.442;2023-08-21T09:08:54;4.07;;;1.50;;
56073;SDS011;41950;55.840;37.442;2023-08-21T09:11:20;2.65;;;1.23;;
56073;SDS011;41950;55.840;37.442;2023-08-21T09:13:49;2.97;;;1.25;;
56073;SDS011;41950;55.840;37.442;2023-08-21T09:16:17;3.40;;;1.40;;
56073;SDS011;41950;55.840;37.442;2023-08-21T09:18:47;3.47;;;1.40;;
56073;SDS011;41950;55.840;37.442;2023-08-21T09:21:20;2.85;;;1.30;;
56073;SDS011;41950;55.840;37.442;2023-08-21T09:23:47;2.53;;;1.25;;
56073;SDS011;41950;55.840;37.442;2023-08-21T09:26:22;3.78;;;1.50;;
56073;SDS011;41950;55.840;37.442;2023-08-21T09:28:49;2.50;;;1.50;;
56073;SDS011;41950;55.840;37.442;2023-08-21T09:31:16;2.40;;;1.30;;
56073;SDS011;41950;55.840;37.442;2023-08-21T09:33:57;2.70;;;1.40;;
56073;SDS011;41950;55.840;37.442;2023-08-21T09:36:26;3.10;;;1.33;;
56073;SDS011;41950;55.840;37.442;2023-08-21T09:38:52;2.60;;;1.25;;
56073;SDS011;41950;55.840;37.442;2023-08-21T09:41:21;3.95;;;1.40;;
56073;SDS011;41950;55.840;37.442;2023-08-21T09:43:47;3.08;;;1.42;;
56073;SDS011;41950;55.840;37.442;2023-08-21T09:46:17;2.97;;;1.50;;
56073;SDS011;41950;55.840;37.442;2023-08-21T09:48:51;3.00;;;1.40;;
56073;SDS011;41950;55.840;37.442;2023-08-21T09:51:18;3.60;;;1.60;;
56073;SDS011;41950;55.840;37.442;2023-08-21T09:53:44;3.42;;;1.50;;
56073;SDS011;41950;55.840;37.442;2023-08-21T09:56:11;3.20;;;1.50;;
56073;SDS011;41950;55.840;37.442;2023-08-21T09:58:37;2.63;;;1.38;;
56073;SDS011;41950;55.840;37.442;2023-08-21T10:01:06;2.67;;;1.40;;
56073;SDS011;41950;55.840;37.442;2023-08-21T10:03:39;3.33;;;1.40;;
56073;SDS011;41950;55.840;37.442;2023-08-21T10:06:06;3.63;;;1.30;;
56073;SDS011;41950;55.840;37.442;2023-08-21T10:08:36;3.15;;;1.20;;
56073;SDS011;41950;55.840;37.442;2023-08-21T10:11:06;3.35;;;1.67;;
56073;SDS011;41950;55.840;37.442;2023-08-21T10:13:33;3.50;;;1.60;;
56073;SDS011;41950;55.840;37.442;2023-08-21T10:16:01;4.40;;;1.67;;
56073;SDS011;41950;55.840;37.442;2023-08-21T10:18:32;3.10;;;1.50;;
56073;SDS011;41950;55.840;37.442;2023-08-21T10:21:12;2.70;;;1.20;;
56073;SDS011;41950;55.840;37.442;2023-08-21T10:23:39;3.05;;;1.35;;
56073;SDS011;41950;55.840;37.442;2023-08-21T10:26:06;4.38;;;1.50;;
56073;SDS011;41950;55.840;37.442;2023-08-21T10:28:43;3.67;;;1.30;;
56073;SDS011;41950;55.840;37.442;2023-08-21T10:34:25;4.65;;;1.70;;
56073;SDS011;41950;55.840;37.442;2023-08-21T10:39:33;2.85;;;1.00;;
56073;SDS011;41950;55.840;37.442;2023-08-21T10:42:10;4.10;;;1.55;;
56073;SDS011;41950;55.840;37.442;2023-08-21T10:49:40;2.75;;;1.55;;
56073;SDS011;41950;55.840;37.442;2023-08-21T10:52:07;2.75;;;1.50;;
56073;SDS011;41950;55.840;37.442;2023-08-21T10:54:44;3.42;;;1.33;;
56073;SDS011;41950;55.840;37.442;2023-08-21T10:57:11;2.75;;;1.27;;
56073;SDS011;41950;55.840;37.442;2023-08-21T10:59:36;3.00;;;1.60;;
56073;SDS011;41950;55.840;37.442;2023-08-21T11:02:02;3.97;;;1.50;;
56073;SDS011;41950;55.840;37.442;2023-08-21T11:04:28;3.20;;;1.38;;
56073;SDS011;41950;55.840;37.442;2023-08-21T11:06:54;2.92;;;1.33;;
56073;SDS011;41950;55.840;37.442;2023-08-21T11:09:21;3.05;;;1.23;;
56073;SDS011;41950;55.840;37.442;2023-08-21T11:11:47;2.53;;;1.35;;
56073;SDS011;41950;55.840;37.442;2023-08-21T11:14:13;2.83;;;1.70;;
56073;SDS011;41950;55.840;37.442;2023-08-21T11:16:38;4.32;;;1.60;;
56073;SDS011;41950;55.840;37.442;2023-08-21T11:19:04;3.00;;;1.10;;
56073;SDS011;41950;55.840;37.442;2023-08-21T11:21:32;4.32;;;1.42;;
56073;SDS011;41950;55.840;37.442;2023-08-21T11:23:58;2.50;;;1.20;;
56073;SDS011;41950;55.840;37.442;2023-08-21T11:26:24;3.08;;;1.30;;
56073;SDS011;41950;55.840;37.442;2023-08-21T11:28:50;2.50;;;1.15;;
56073;SDS011;41950;55.840;37.442;2023-08-21T11:31:16;2.90;;;1.33;;
56073;SDS011;41950;55.840;37.442;2023-08-21T11:33:48;3.08;;;1.30;;
56073;SDS011;41950;55.840;37.442;2023-08-21T11:36:15;3.00;;;1.30;;
56073;SDS011;41950;55.840;37.442;2023-08-21T11:38:41;3.85;;;1.40;;
56073;SDS011;41950;55.840;37.442;2023-08-21T11:41:06;3.55;;;1.60;;
56073;SDS011;41950;55.840;37.442;2023-08-21T11:43:39;3.35;;;1.45;;
56073;SDS011;41950;55.840;37.442;2023-08-21T11:46:08;2.80;;;1.33;;
56073;SDS011;41950;55.840;37.442;2023-08-21T11:48:39;4.67;;;1.90;;
56073;SDS011;41950;55.840;37.442;2023-08-21T11:51:06;3.22;;;1.30;;
56073;SDS011;41950;55.840;37.442;2023-08-21T11:53:35;3.58;;;1.63;;
56073;SDS011;41950;55.840;37.442;2023-08-21T11:56:03;3.38;;;1.42;;
56073;SDS011;41950;55.840;37.442;2023-08-21T11:58:41;3.92;;;1.50;;
56073;SDS011;41950;55.840;37.442;2023-08-21T12:01:10;3.22;;;1.50;;
56073;SDS011;41950;55.840;37.442;2023-08-21T12:03:37;3.28;;;1.48;;
56073;SDS011;41950;55.840;37.442;2023-08-21T12:06:05;4.82;;;1.48;;
56073;SDS011;41950;55.840;37.442;2023-08-21T12:08:34;2.28;;;1.00;;
56073;SDS011;41950;55.840;37.442;2023-08-21T12:11:01;3.10;;;1.30;;
56073;SDS011;41950;55.840;37.442;2023-08-21T12:13:27;2.08;;;1.10;;
56073;SDS011;41950;55.840;37.442;2023-08-21T12:15:52;3.63;;;1.50;;
56073;SDS011;41950;55.840;37.442;2023-08-21T12:18:18;2.72;;;1.30;;
56073;SDS011;41950;55.840;37.442;2023-08-21T12:20:44;2.45;;;1.33;;
56073;SDS011;41950;55.840;37.442;2023-08-21T12:23:09;2.78;;;1.27;;
56073;SDS011;41950;55.840;37.442;2023-08-21T12:25:35;3.13;;;1.30;;
56073;SDS011;41950;55.840;37.442;2023-08-21T12:28:01;3.72;;;1.30;;
56073;SDS011;41950;55.840;37.442;2023-08-21T12:30:26;3.30;;;1.10;;
56073;SDS011;41950;55.840;37.442;2023-08-21T12:32:52;2.90;;;1.35;;
56073;SDS011;41950;55.840;37.442;2023-08-21T12:35:17;3.25;;;1.58;;
56073;SDS011;41950;55.840;37.442;2023-08-21T12:37:43;2.88;;;1.20;;
56073;SDS011;41950;55.840;37.442;2023-08-21T12:40:09;4.80;;;1.40;;
56073;SDS011;41950;55.840;37.442;2023-08-21T12:42:35;2.55;;;1.20;;
56073;SDS011;41950;55.840;37.442;2023-08-21T12:45:00;4.68;;;1.40;;
56073;SDS011;41950;55.840;37.442;2023-08-21T12:47:26;3.47;;;1.23;;
56073;SDS011;41950;55.840;37.442;2023-08-21T12:49:52;4.55;;;1.50;;
56073;SDS011;41950;55.840;37.442;2023-08-21T12:52:18;3.42;;;1.50;;
56073;SDS011;41950;55.840;37.442;2023-08-21T12:54:43;3.45;;;1.50;;
56073;SDS011;41950;55.840;37.442;2023-08-21T12:57:09;2.25;;;1.27;;
56073;SDS011;41950;55.840;37.442;2023-08-21T12:59:36;4.10;;;1.35;;
56073;SDS011;41950;55.840;37.442;2023-08-21T13:02:02;3.42;;;1.50;;
56073;SDS011;41950;55.840;37.442;2023-08-21T13:04:29;2.55;;;1.15;;
56073;SDS011;41950;55.840;37.442;2023-08-21T13:06:55;3.92;;;1.40;;
56073;SDS011;41950;55.840;37.442;2023-08-21T13:09:21;3.65;;;1.42;;
56073;SDS011;41950;55.840;37.442;2023-08-21T13:11:49;3.15;;;1.20;;
56073;SDS011;41950;55.840;37.442;2023-08-21T13:14:14;3.63;;;1.30;;
56073;SDS011;41950;55.840;37.442;2023-08-21T13:16:40;2.95;;;1.20;;
56073;SDS011;41950;55.840;37.442;2023-08-21T13:19:05;3.90;;;1.30;;
56073;SDS011;41950;55.840;37.442;2023-08-21T13:21:31;2.70;;;1.10;;
56073;SDS011;41950;55.840;37.442;2023-08-21T13:23:57;3.88;;;1.20;;
56073;SDS011;41950;55.840;37.442;2023-08-21T13:26:22;3.25;;;1.45;;
56073;SDS011;41950;55.840;37.442;2023-08-21T13:28:48;2.60;;;1.40;;
56073;SDS011;41950;55.840;37.442;2023-08-21T13:31:14;4.85;;;1.30;;
56073;SDS011;41950;55.840;37.442;2023-08-21T13:33:46;2.60;;;1.13;;
56073;SDS011;41950;55.840;37.442;2023-08-21T13:36:12;2.63;;;1.30;;
56073;SDS011;41950;55.840;37.442;2023-08-21T13:38:39;2.97;;;1.33;;
56073;SDS011;41950;55.840;37.442;2023-08-21T13:41:05;2.67;;;1.38;;
56073;SDS011;41950;55.840;37.442;2023-08-21T13:43:31;4.38;;;1.63;;
56073;SDS011;41950;55.840;37.442;2023-08-21T13:45:59;2.80;;;1.38;;
56073;SDS011;41950;55.840;37.442;2023-08-21T13:48:26;4.15;;;1.48;;
56073;SDS011;41950;55.840;37.442;2023-08-21T13:50:52;4.63;;;2.20;;
56073;SDS011;41950;55.840;37.442;2023-08-21T13:53:17;3.42;;;1.45;;
56073;SDS011;41950;55.840;37.442;2023-08-21T13:55:44;3.47;;;1.40;;
56073;SDS011;41950;55.840;37.442;2023-08-21T13:58:10;2.85;;;1.38;;
56073;SDS011;41950;55.840;37.442;2023-08-21T14:00:36;2.85;;;1.40;;
56073;SDS011;41950;55.840;37.442;2023-08-21T14:03:02;4.25;;;1.25;;
56073;SDS011;41950;55.840;37.442;2023-08-21T14:05:27;3.13;;;1.38;;
56073;SDS011;41950;55.840;37.442;2023-08-21T14:07:56;4.80;;;1.73;;
56073;SDS011;41950;55.840;37.442;2023-08-21T14:10:22;3.25;;;1.33;;
56073;SDS011;41950;55.840;37.442;2023-08-21T14:12:48;3.40;;;1.35;;
56073;SDS011;41950;55.840;37.442;2023-08-21T14:15:14;3.80;;;1.40;;
56073;SDS011;41950;55.840;37.442;2023-08-21T14:17:40;3.40;;;1.33;;
56073;SDS011;41950;55.840;37.442;2023-08-21T14:20:07;3.50;;;1.48;;
56073;SDS011;41950;55.840;37.442;2023-08-21T14:22:33;2.70;;;1.33;;
56073;SDS011;41950;55.840;37.442;2023-08-21T14:24:59;2.90;;;1.20;;
56073;SDS011;41950;55.840;37.442;2023-08-21T14:27:24;2.95;;;1.33;;
56073;SDS011;41950;55.840;37.442;2023-08-21T14:29:50;4.07;;;1.95;;
56073;SDS011;41950;55.840;37.442;2023-08-21T14:32:15;3.95;;;1.67;;
56073;SDS011;41950;55.840;37.442;2023-08-21T14:34:41;8.90;;;1.90;;
56073;SDS011;41950;55.840;37.442;2023-08-21T14:37:07;3.15;;;1.80;;
56073;SDS011;41950;55.840;37.442;2023-08-21T14:39:33;5.15;;;1.52;;
56073;SDS011;41950;55.840;37.442;2023-08-21T14:41:58;6.53;;;4.93;;
56073;SDS011;41950;55.840;37.442;2023-08-21T14:44:25;3.25;;;2.00;;